Time;durP1;ratioP1;P1;durP2;ratioP2;P2;SDS_P1;SDS_P2;PMS_P1;PMS_P2;Temp;Humidity;BMP_temperature;BMP_pressure;BME280_temperature;BME280_humidity;BME280_pressure;Samples;Min_cycle;Max_cycle;Signal;HPM_P1;HPM_P2
2020/12/27 00:00:07;;;;;;;305.50;96.43;;;;;;;;;;5064808;28;20472;-61
2020/12/27 00:02:33;;;;;;;220.50;73.25;;;;;;;;;;5068370;28;20028;-53
2020/12/27 00:04:59;;;;;;;138.43;55.45;;;;;;;;;;5018439;28;20435;-54
2020/12/27 00:07:25;;;;;;;138.82;57.53;;;;;;;;;;5055254;28;20024;-53
2020/12/27 00:09:51;;;;;;;150.38;58.70;;;;;;;;;;5060041;28;20468;-51
2020/12/27 00:12:17;;;;;;;165.65;65.65;;;;;;;;;;5058526;28;20024;-51
2020/12/27 00:14:43;;;;;;;94.70;44.13;;;;;;;;;;5055211;28;20416;-51
2020/12/27 00:17:11;;;;;;;160.23;64.75;;;;;;;;;;5064688;28;20082;-57
2020/12/27 00:19:37;;;;;;;195.48;77.25;;;;;;;;;;5056664;28;20024;-57
2020/12/27 00:22:04;;;;;;;115.00;51.30;;;;;;;;;;5052155;28;20013;-57
2020/12/27 00:24:30;;;;;;;244.27;87.55;;;;;;;;;;5052378;28;20493;-59
2020/12/27 00:26:56;;;;;;;165.95;62.85;;;;;;;;;;5052168;28;20092;-52
2020/12/27 00:29:22;;;;;;;201.38;75.95;;;;;;;;;;5061341;28;20024;-51
2020/12/27 00:31:52;;;;;;;465.77;156.60;;;;;;;;;;5064801;28;20071;-57
2020/12/27 00:34:18;;;;;;;223.95;88.22;;;;;;;;;;5053738;28;20499;-50
2020/12/27 00:36:44;;;;;;;192.75;78.95;;;;;;;;;;5054491;28;20561;-54
2020/12/27 00:39:11;;;;;;;137.80;58.75;;;;;;;;;;5052988;28;20033;-55
2020/12/27 00:41:37;;;;;;;152.52;69.00;;;;;;;;;;5055143;28;20059;-53
2020/12/27 00:44:03;;;;;;;133.85;66.75;;;;;;;;;;5054615;28;20021;-56
2020/12/27 00:46:29;;;;;;;108.03;55.38;;;;;;;;;;5067757;28;20025;-57
2020/12/27 00:48:55;;;;;;;82.28;44.53;;;;;;;;;;5054975;28;20015;-56
2020/12/27 00:51:25;;;;;;;71.80;39.55;;;;;;;;;;5052565;28;20025;-54
2020/12/27 00:53:51;;;;;;;75.10;43.33;;;;;;;;;;5044469;28;20047;-55
2020/12/27 00:56:18;;;;;;;64.72;37.20;;;;;;;;;;5064522;28;20043;-51
2020/12/27 00:58:44;;;;;;;72.18;40.65;;;;;;;;;;5054336;28;20669;-51
2020/12/27 01:01:10;;;;;;;78.85;43.50;;;;;;;;;;5065588;28;20032;-57
2020/12/27 01:03:37;;;;;;;85.82;47.45;;;;;;;;;;5056661;28;20044;-51
2020/12/27 01:06:03;;;;;;;78.78;43.70;;;;;;;;;;5036757;28;20060;-55
2020/12/27 01:08:30;;;;;;;83.93;46.38;;;;;;;;;;5061317;28;20028;-58
2020/12/27 01:10:56;;;;;;;72.10;40.75;;;;;;;;;;5070057;28;20020;-55
2020/12/27 01:13:22;;;;;;;77.35;42.53;;;;;;;;;;5059570;28;20105;-52
2020/12/27 01:15:48;;;;;;;73.05;39.17;;;;;;;;;;5072398;28;20360;-53
2020/12/27 01:18:14;;;;;;;65.78;36.45;;;;;;;;;;5072494;28;20032;-58
2020/12/27 01:20:40;;;;;;;62.08;34.97;;;;;;;;;;5054564;28;20453;-57
2020/12/27 01:23:06;;;;;;;63.78;34.05;;;;;;;;;;5072193;28;20052;-57
2020/12/27 01:25:33;;;;;;;56.85;31.75;;;;;;;;;;5072321;28;20144;-52
2020/12/27 01:27:59;;;;;;;59.55;33.40;;;;;;;;;;5072276;28;20388;-52
2020/12/27 01:30:25;;;;;;;67.40;38.55;;;;;;;;;;5071822;28;20028;-53
2020/12/27 01:32:51;;;;;;;63.80;35.03;;;;;;;;;;5054372;28;20537;-53
2020/12/27 01:35:17;;;;;;;61.28;33.45;;;;;;;;;;5072267;28;20024;-52
2020/12/27 01:37:43;;;;;;;65.35;34.03;;;;;;;;;;5072078;28;20095;-58
2020/12/27 01:40:09;;;;;;;58.03;31.92;;;;;;;;;;5072199;28;20056;-51
2020/12/27 01:42:35;;;;;;;60.40;32.50;;;;;;;;;;5072302;28;20025;-52
2020/12/27 01:45:02;;;;;;;49.05;27.55;;;;;;;;;;5072096;28;20032;-52
2020/12/27 01:47:29;;;;;;;51.78;28.50;;;;;;;;;;5072219;28;20020;-56
2020/12/27 01:49:55;;;;;;;59.90;33.35;;;;;;;;;;5072030;28;20058;-51
2020/12/27 01:52:21;;;;;;;56.33;30.33;;;;;;;;;;5072065;28;20078;-58
2020/12/27 01:54:47;;;;;;;55.58;29.95;;;;;;;;;;5072087;28;20032;-56
2020/12/27 01:57:13;;;;;;;53.67;29.98;;;;;;;;;;5072209;28;20028;-59
2020/12/27 01:59:39;;;;;;;55.28;30.98;;;;;;;;;;5071812;28;20480;-56
2020/12/27 02:02:07;;;;;;;56.78;32.10;;;;;;;;;;5071557;28;20491;-52
2020/12/27 02:04:33;;;;;;;74.07;39.47;;;;;;;;;;5072137;28;20067;-51
2020/12/27 02:07:00;;;;;;;74.43;40.03;;;;;;;;;;5071935;28;20506;-54
2020/12/27 02:09:26;;;;;;;98.10;49.83;;;;;;;;;;5072009;28;20032;-52
2020/12/27 02:12:02;;;;;;;82.53;42.45;;;;;;;;;;5072267;28;20388;-54
2020/12/27 02:14:28;;;;;;;72.35;38.97;;;;;;;;;;5072203;28;20071;-52
2020/12/27 02:16:54;;;;;;;67.88;37.58;;;;;;;;;;5063203;28;20052;-51
2020/12/27 02:19:20;;;;;;;73.63;38.90;;;;;;;;;;5054659;28;20413;-57
2020/12/27 02:21:46;;;;;;;79.05;40.97;;;;;;;;;;5055292;28;20020;-52
2020/12/27 02:24:12;;;;;;;76.53;40.17;;;;;;;;;;5059410;28;20067;-51
2020/12/27 02:26:38;;;;;;;75.68;39.95;;;;;;;;;;5059005;28;20032;-57
2020/12/27 02:29:09;;;;;;;76.75;39.50;;;;;;;;;;5056271;28;20100;-52
2020/12/27 02:31:35;;;;;;;81.75;41.35;;;;;;;;;;5058133;28;20060;-53
2020/12/27 02:34:01;;;;;;;77.68;41.08;;;;;;;;;;5055393;28;20024;-55
2020/12/27 02:36:27;;;;;;;82.07;43.33;;;;;;;;;;5063636;28;20016;-53
2020/12/27 02:38:53;;;;;;;87.40;45.47;;;;;;;;;;5065928;28;20103;-58
2020/12/27 02:41:20;;;;;;;81.85;42.13;;;;;;;;;;5061082;28;20028;-57
2020/12/27 02:43:46;;;;;;;111.45;54.00;;;;;;;;;;5059557;28;20037;-58
2020/12/27 02:46:30;;;;;;;86.97;47.05;;;;;;;;;;5057172;28;20507;-56
2020/12/27 02:48:56;;;;;;;77.05;42.75;;;;;;;;;;5056253;28;20029;-54
2020/12/27 02:51:23;;;;;;;70.38;37.60;;;;;;;;;;5056185;28;20031;-57
2020/12/27 02:53:49;;;;;;;69.38;37.53;;;;;;;;;;5056184;28;20021;-56
2020/12/27 02:56:16;;;;;;;64.05;35.17;;;;;;;;;;5057240;28;20562;-57
2020/12/27 02:58:42;;;;;;;73.63;37.67;;;;;;;;;;5063319;28;20031;-53
2020/12/27 03:01:08;;;;;;;75.95;40.65;;;;;;;;;;5058998;28;20044;-53
2020/12/27 03:03:34;;;;;;;66.80;36.28;;;;;;;;;;5056032;28;20028;-57
2020/12/27 03:06:00;;;;;;;61.28;33.30;;;;;;;;;;5057511;28;20035;-50
2020/12/27 03:08:26;;;;;;;62.15;33.38;;;;;;;;;;5059012;28;20021;-51
2020/12/27 03:10:52;;;;;;;58.40;31.38;;;;;;;;;;5074610;28;20074;-52
2020/12/27 03:13:18;;;;;;;59.13;32.17;;;;;;;;;;5074632;28;20066;-58
2020/12/27 03:15:44;;;;;;;54.78;31.17;;;;;;;;;;5074702;28;20040;-55
2020/12/27 03:18:10;;;;;;;53.30;29.88;;;;;;;;;;5074603;28;20472;-58
2020/12/27 03:20:36;;;;;;;53.20;29.17;;;;;;;;;;5074425;28;20554;-52
2020/12/27 03:23:02;;;;;;;55.20;30.38;;;;;;;;;;5074327;28;20064;-51
2020/12/27 03:25:28;;;;;;;61.90;33.47;;;;;;;;;;5074308;28;20568;-52
2020/12/27 03:27:54;;;;;;;62.78;33.00;;;;;;;;;;5074200;28;20819;-54
2020/12/27 03:30:20;;;;;;;54.45;30.20;;;;;;;;;;5074369;28;20028;-55
2020/12/27 03:32:46;;;;;;;54.45;29.38;;;;;;;;;;5073961;28;20088;-59
2020/12/27 03:35:12;;;;;;;60.25;32.70;;;;;;;;;;5074514;28;20024;-56
2020/12/27 03:37:39;;;;;;;56.60;30.45;;;;;;;;;;5074394;28;20028;-57
2020/12/27 03:40:05;;;;;;;60.10;31.15;;;;;;;;;;5074285;28;20103;-58
2020/12/27 03:42:31;;;;;;;58.75;30.65;;;;;;;;;;5074281;28;20478;-58
2020/12/27 03:44:58;;;;;;;57.60;31.90;;;;;;;;;;5074063;28;20044;-54
2020/12/27 03:47:24;;;;;;;60.78;32.00;;;;;;;;;;5074407;28;20021;-52
2020/12/27 03:49:50;;;;;;;57.83;32.50;;;;;;;;;;5073901;28;20037;-52
2020/12/27 03:52:16;;;;;;;73.88;38.42;;;;;;;;;;5074332;28;20468;-51
2020/12/27 03:54:42;;;;;;;59.10;32.17;;;;;;;;;;5074034;28;20025;-51
2020/12/27 03:57:08;;;;;;;67.28;34.63;;;;;;;;;;5073808;28;20035;-53
2020/12/27 03:59:34;;;;;;;71.60;37.33;;;;;;;;;;5074092;28;20142;-56
2020/12/27 04:02:00;;;;;;;65.22;33.78;;;;;;;;;;5073829;28;20026;-57
2020/12/27 04:04:26;;;;;;;60.85;32.25;;;;;;;;;;5073954;28;20032;-59
2020/12/27 04:06:52;;;;;;;55.65;31.15;;;;;;;;;;5072740;28;20032;-57
2020/12/27 04:09:19;;;;;;;50.70;28.33;;;;;;;;;;5074028;28;20029;-55
2020/12/27 04:11:45;;;;;;;48.78;27.00;;;;;;;;;;5073910;28;20081;-52
2020/12/27 04:14:11;;;;;;;46.75;26.33;;;;;;;;;;5073722;28;20028;-57
2020/12/27 04:16:37;;;;;;;48.47;25.95;;;;;;;;;;5073794;28;20025;-55
2020/12/27 04:19:03;;;;;;;53.20;28.38;;;;;;;;;;5073745;28;20021;-55
2020/12/27 04:21:29;;;;;;;52.53;27.73;;;;;;;;;;5073250;28;20488;-58
2020/12/27 04:23:56;;;;;;;53.47;29.27;;;;;;;;;;5073356;28;20055;-57
2020/12/27 04:26:22;;;;;;;57.08;29.80;;;;;;;;;;5073429;28;20025;-55
2020/12/27 04:28:48;;;;;;;56.47;29.50;;;;;;;;;;5073605;28;20017;-58
2020/12/27 04:31:20;;;;;;;56.33;29.27;;;;;;;;;;5073454;28;20028;-59
2020/12/27 04:33:46;;;;;;;51.05;27.52;;;;;;;;;;5073672;28;20020;-55
2020/12/27 04:36:12;;;;;;;57.13;30.77;;;;;;;;;;5073254;28;20032;-52
2020/12/27 04:38:38;;;;;;;62.33;32.83;;;;;;;;;;5078906;28;20103;-58
2020/12/27 04:41:04;;;;;;;61.70;32.28;;;;;;;;;;5081197;28;20060;-55
2020/12/27 04:43:30;;;;;;;60.22;31.13;;;;;;;;;;5073087;28;20039;-56
2020/12/27 04:45:58;;;;;;;64.20;32.38;;;;;;;;;;5073231;28;20029;-57
2020/12/27 04:48:24;;;;;;;59.42;30.75;;;;;;;;;;5073120;28;20047;-54
2020/12/27 04:50:52;;;;;;;53.20;26.75;;;;;;;;;;5073086;28;20021;-57
2020/12/27 04:53:18;;;;;;;50.22;24.83;;;;;;;;;;5073086;28;20059;-57
2020/12/27 04:55:45;;;;;;;44.17;23.58;;;;;;;;;;5073125;28;20032;-57
2020/12/27 04:58:15;;;;;;;39.00;20.50;;;;;;;;;;5073183;28;20070;-54
2020/12/27 05:00:41;;;;;;;36.47;19.67;;;;;;;;;;5072995;28;20463;-55
2020/12/27 05:03:07;;;;;;;34.30;18.65;;;;;;;;;;5073108;28;20054;-57
2020/12/27 05:05:33;;;;;;;32.45;18.30;;;;;;;;;;5072819;28;20481;-57
2020/12/27 05:07:59;;;;;;;32.28;18.08;;;;;;;;;;5072703;28;20017;-56
2020/12/27 05:10:25;;;;;;;34.60;18.30;;;;;;;;;;5068445;28;20028;-52
2020/12/27 05:12:52;;;;;;;35.42;19.45;;;;;;;;;;5072807;28;20162;-52
2020/12/27 05:15:18;;;;;;;34.85;20.02;;;;;;;;;;5072640;28;20029;-55
2020/12/27 05:17:44;;;;;;;33.55;19.63;;;;;;;;;;5072784;28;20198;-54
2020/12/27 05:20:14;;;;;;;38.92;21.13;;;;;;;;;;5072609;28;20032;-59
2020/12/27 05:22:41;;;;;;;37.50;20.48;;;;;;;;;;5072526;28;20048;-58
2020/12/27 05:25:08;;;;;;;38.33;21.50;;;;;;;;;;5072258;28;20135;-55
2020/12/27 05:27:40;;;;;;;36.88;19.88;;;;;;;;;;5072327;28;20086;-59
2020/12/27 05:30:06;;;;;;;44.40;23.88;;;;;;;;;;5072440;28;20028;-56
2020/12/27 05:32:32;;;;;;;41.13;22.55;;;;;;;;;;5072378;28;20024;-57
2020/12/27 05:34:58;;;;;;;42.67;22.90;;;;;;;;;;5072470;28;20100;-54
2020/12/27 05:37:25;;;;;;;46.67;25.23;;;;;;;;;;5072625;28;20215;-56
2020/12/27 05:39:52;;;;;;;45.70;24.48;;;;;;;;;;5058440;28;20393;-56
2020/12/27 05:42:23;;;;;;;43.05;22.88;;;;;;;;;;5067671;28;20059;-53
2020/12/27 05:44:49;;;;;;;63.20;33.70;;;;;;;;;;5067547;28;20025;-56
2020/12/27 05:47:15;;;;;;;49.13;25.67;;;;;;;;;;5068204;28;20024;-52
2020/12/27 05:49:41;;;;;;;47.65;25.58;;;;;;;;;;5067706;28;20420;-58
2020/12/27 05:52:13;;;;;;;47.10;24.00;;;;;;;;;;5072247;28;20025;-57
2020/12/27 05:54:40;;;;;;;43.92;23.58;;;;;;;;;;5071741;28;20060;-57
2020/12/27 05:57:06;;;;;;;48.38;25.10;;;;;;;;;;5072230;28;20036;-56
2020/12/27 05:59:34;;;;;;;58.50;29.95;;;;;;;;;;5072239;28;20036;-52
2020/12/27 06:02:01;;;;;;;52.13;27.92;;;;;;;;;;5070754;28;20059;-51
2020/12/27 06:04:36;;;;;;;56.85;28.75;;;;;;;;;;5071315;28;20029;-56
2020/12/27 06:07:02;;;;;;;65.70;34.03;;;;;;;;;;5071315;28;20473;-57
2020/12/27 06:09:31;;;;;;;90.22;49.92;;;;;;;;;;5070673;28;20035;-52
2020/12/27 06:12:02;;;;;;;68.20;36.67;;;;;;;;;;5071196;28;20099;-57
2020/12/27 06:14:41;;;;;;;85.57;45.75;;;;;;;;;;5054378;28;20024;-51
2020/12/27 06:17:11;;;;;;;66.88;33.83;;;;;;;;;;5054305;28;20048;-53
2020/12/27 06:19:56;;;;;;;60.35;32.45;;;;;;;;;;5063872;28;20017;-53
2020/12/27 06:22:29;;;;;;;57.45;30.30;;;;;;;;;;5053266;28;20473;-58
2020/12/27 06:24:57;;;;;;;56.85;30.58;;;;;;;;;;5070917;28;20048;-53
2020/12/27 06:27:25;;;;;;;58.03;32.42;;;;;;;;;;5071524;28;20387;-58
2020/12/27 06:29:53;;;;;;;61.45;33.97;;;;;;;;;;5071435;28;20119;-58
2020/12/27 06:32:22;;;;;;;57.65;31.83;;;;;;;;;;5070901;28;20036;-52
2020/12/27 06:34:48;;;;;;;62.08;32.95;;;;;;;;;;5063135;28;20107;-52
2020/12/27 06:37:18;;;;;;;57.53;32.08;;;;;;;;;;5070711;28;20142;-55
2020/12/27 06:39:45;;;;;;;68.50;36.83;;;;;;;;;;5070914;28;20089;-58
2020/12/27 06:42:18;;;;;;;78.70;43.08;;;;;;;;;;5070942;28;20016;-58
2020/12/27 06:44:44;;;;;;;70.82;38.03;;;;;;;;;;5070958;28;20028;-56
2020/12/27 06:47:11;;;;;;;64.82;36.83;;;;;;;;;;5071088;28;20103;-61
2020/12/27 06:49:37;;;;;;;66.93;36.72;;;;;;;;;;5070878;28;20028;-53
2020/12/27 06:52:22;;;;;;;68.32;38.17;;;;;;;;;;5070444;28;20097;-55
2020/12/27 06:54:50;;;;;;;60.38;33.67;;;;;;;;;;5056858;28;20028;-52
2020/12/27 06:57:34;;;;;;;52.72;30.20;;;;;;;;;;5069295;28;20487;-52
2020/12/27 07:00:19;;;;;;;46.13;26.95;;;;;;;;;;5059766;28;20067;-55
2020/12/27 07:02:46;;;;;;;53.95;28.67;;;;;;;;;;5055736;28;20078;-52
2020/12/27 07:05:27;;;;;;;63.88;34.28;;;;;;;;;;5061372;28;20069;-54
2020/12/27 07:07:53;;;;;;;119.65;64.38;;;;;;;;;;5062479;28;20047;-54
2020/12/27 07:10:22;;;;;;;201.80;96.55;;;;;;;;;;5056526;28;20029;-56
2020/12/27 07:12:48;;;;;;;142.10;71.55;;;;;;;;;;5054135;28;20025;-53
2020/12/27 07:15:15;;;;;;;210.32;101.97;;;;;;;;;;5056279;28;20059;-54
2020/12/27 07:17:42;;;;;;;134.30;67.25;;;;;;;;;;5056274;28;20460;-52
2020/12/27 07:20:17;;;;;;;128.65;65.35;;;;;;;;;;5056917;28;20033;-54
2020/12/27 07:22:43;;;;;;;127.50;67.50;;;;;;;;;;5055226;28;20017;-58
2020/12/27 07:25:13;;;;;;;75.82;41.33;;;;;;;;;;5057441;28;20132;-57
2020/12/27 07:27:40;;;;;;;54.97;29.98;;;;;;;;;;5055922;28;20032;-55
2020/12/27 07:30:07;;;;;;;57.55;31.30;;;;;;;;;;5057346;28;20044;-58
2020/12/27 07:32:39;;;;;;;47.53;27.58;;;;;;;;;;5055098;28;20025;-55
2020/12/27 07:35:08;;;;;;;56.72;31.42;;;;;;;;;;5058250;28;20179;-57
2020/12/27 07:37:34;;;;;;;50.10;29.27;;;;;;;;;;5062801;28;20029;-55
2020/12/27 07:40:00;;;;;;;46.05;27.92;;;;;;;;;;5073888;28;20709;-56
2020/12/27 07:42:29;;;;;;;40.03;23.20;;;;;;;;;;5055641;28;20055;-55
2020/12/27 07:44:57;;;;;;;31.40;19.40;;;;;;;;;;5073954;28;20040;-57
2020/12/27 07:47:23;;;;;;;28.45;18.23;;;;;;;;;;5073965;28;20031;-55
2020/12/27 07:50:01;;;;;;;28.95;18.33;;;;;;;;;;5073470;28;20498;-57
2020/12/27 07:52:46;;;;;;;24.13;14.07;;;;;;;;;;5073597;28;20476;-55
2020/12/27 07:55:20;;;;;;;26.55;17.02;;;;;;;;;;5065458;28;20040;-53
2020/12/27 07:57:46;;;;;;;29.42;18.42;;;;;;;;;;5054660;28;20485;-55
2020/12/27 08:00:12;;;;;;;31.17;19.23;;;;;;;;;;5050147;28;20017;-56
2020/12/27 08:02:42;;;;;;;24.88;15.38;;;;;;;;;;5050701;28;20079;-58
2020/12/27 08:05:09;;;;;;;19.92;12.95;;;;;;;;;;5056293;28;20181;-56
2020/12/27 08:07:35;;;;;;;26.77;15.23;;;;;;;;;;5063068;28;20029;-58
2020/12/27 08:10:12;;;;;;;17.40;10.95;;;;;;;;;;5070667;28;20424;-59
2020/12/27 08:12:38;;;;;;;17.17;11.55;;;;;;;;;;5073303;28;20099;-54
2020/12/27 08:15:08;;;;;;;14.88;9.52;;;;;;;;;;5058969;28;20029;-59
2020/12/27 08:17:34;;;;;;;14.57;9.80;;;;;;;;;;5073110;28;20146;-55
2020/12/27 08:20:03;;;;;;;16.02;10.30;;;;;;;;;;5073004;28;20106;-57
2020/12/27 08:22:29;;;;;;;15.23;10.68;;;;;;;;;;5072038;28;20033;-53
2020/12/27 08:25:11;;;;;;;12.50;8.18;;;;;;;;;;5072794;28;20044;-58
2020/12/27 08:27:37;;;;;;;12.32;7.68;;;;;;;;;;5061011;28;20040;-58
2020/12/27 08:30:04;;;;;;;13.18;8.70;;;;;;;;;;5072432;28;20032;-58
2020/12/27 08:32:30;;;;;;;14.05;8.93;;;;;;;;;;5063633;28;20017;-58
2020/12/27 08:34:56;;;;;;;13.55;9.10;;;;;;;;;;5054812;28;20083;-57
2020/12/27 08:37:23;;;;;;;11.73;7.10;;;;;;;;;;5057864;28;20468;-58
2020/12/27 08:40:03;;;;;;;12.48;7.60;;;;;;;;;;5072919;28;20059;-56
2020/12/27 08:42:41;;;;;;;11.20;7.60;;;;;;;;;;5072710;28;20422;-56
2020/12/27 08:45:11;;;;;;;14.23;7.60;;;;;;;;;;5072863;28;20127;-57
2020/12/27 08:47:44;;;;;;;13.27;7.65;;;;;;;;;;5072348;28;20016;-53
2020/12/27 08:50:17;;;;;;;11.70;7.57;;;;;;;;;;5072698;28;20419;-58
2020/12/27 08:52:51;;;;;;;11.48;7.28;;;;;;;;;;5072503;28;20093;-53
2020/12/27 08:55:22;;;;;;;11.45;7.55;;;;;;;;;;5067883;28;20044;-57
2020/12/27 08:57:48;;;;;;;9.68;6.38;;;;;;;;;;5065321;28;20024;-51
2020/12/27 09:00:14;;;;;;;15.88;9.70;;;;;;;;;;5067822;28;20063;-60
2020/12/27 09:02:41;;;;;;;22.55;13.35;;;;;;;;;;5066124;28;20020;-51
2020/12/27 09:05:07;;;;;;;17.05;9.82;;;;;;;;;;5067519;28;20447;-56
2020/12/27 09:07:41;;;;;;;24.10;11.77;;;;;;;;;;5068945;28;20107;-55
2020/12/27 09:10:08;;;;;;;23.00;12.88;;;;;;;;;;5069207;28;20476;-58
2020/12/27 09:12:35;;;;;;;37.70;17.35;;;;;;;;;;5072495;28;20024;-53
2020/12/27 09:15:01;;;;;;;20.75;11.10;;;;;;;;;;5072544;28;20502;-54
2020/12/27 09:17:28;;;;;;;35.22;17.50;;;;;;;;;;5072322;28;20021;-59
2020/12/27 09:19:56;;;;;;;50.65;25.67;;;;;;;;;;5071644;28;20028;-57
2020/12/27 09:22:22;;;;;;;33.25;17.30;;;;;;;;;;5071626;28;20024;-57
2020/12/27 09:25:05;;;;;;;28.38;15.55;;;;;;;;;;5071014;28;20093;-55
2020/12/27 09:27:31;;;;;;;27.25;15.70;;;;;;;;;;5061285;28;20021;-56
2020/12/27 09:30:00;;;;;;;27.77;15.63;;;;;;;;;;5055089;28;20020;-57
2020/12/27 09:32:31;;;;;;;50.80;28.88;;;;;;;;;;5067519;28;20032;-53
2020/12/27 09:34:57;;;;;;;37.70;22.58;;;;;;;;;;5067076;28;20028;-55
2020/12/27 09:37:24;;;;;;;33.17;20.15;;;;;;;;;;5074190;28;20024;-53
2020/12/27 09:40:00;;;;;;;34.03;19.42;;;;;;;;;;5075164;28;20523;-52
2020/12/27 09:42:27;;;;;;;34.25;19.83;;;;;;;;;;5072045;28;20032;-56
2020/12/27 09:44:55;;;;;;;33.47;20.50;;;;;;;;;;5072518;28;21890;-54
2020/12/27 09:47:22;;;;;;;30.98;19.27;;;;;;;;;;5073585;28;20024;-56
2020/12/27 09:49:58;;;;;;;32.65;18.92;;;;;;;;;;5062647;28;20104;-56
2020/12/27 09:52:24;;;;;;;30.38;17.60;;;;;;;;;;5057670;28;20020;-53
2020/12/27 09:54:50;;;;;;;28.58;18.58;;;;;;;;;;5071603;28;20035;-52
2020/12/27 09:57:20;;;;;;;25.88;16.20;;;;;;;;;;5072038;28;20086;-56
2020/12/27 09:59:47;;;;;;;56.88;29.73;;;;;;;;;;5075534;28;20023;-57
2020/12/27 10:02:14;;;;;;;85.45;41.60;;;;;;;;;;5058668;28;20032;-57
2020/12/27 10:04:40;;;;;;;22.08;14.30;;;;;;;;;;5071446;28;20095;-52
2020/12/27 10:07:06;;;;;;;23.15;14.95;;;;;;;;;;5071966;28;20028;-54
2020/12/27 10:09:33;;;;;;;25.85;15.45;;;;;;;;;;5074266;28;20024;-54
2020/12/27 10:11:59;;;;;;;23.75;14.38;;;;;;;;;;5071635;28;20024;-54
2020/12/27 10:14:25;;;;;;;21.38;12.43;;;;;;;;;;5059339;28;20392;-57
2020/12/27 10:16:51;;;;;;;21.52;13.02;;;;;;;;;;5071320;28;20096;-56
2020/12/27 10:19:17;;;;;;;22.90;14.50;;;;;;;;;;5071416;28;20028;-55
2020/12/27 10:21:46;;;;;;;23.45;14.15;;;;;;;;;;5071003;28;20099;-53
2020/12/27 10:24:12;;;;;;;58.00;33.67;;;;;;;;;;5070953;28;20182;-54
2020/12/27 10:26:39;;;;;;;24.48;14.60;;;;;;;;;;5070178;28;20021;-53
2020/12/27 10:29:05;;;;;;;29.90;18.52;;;;;;;;;;5071324;28;20023;-54
2020/12/27 10:31:31;;;;;;;27.08;16.42;;;;;;;;;;5071536;28;20032;-51
2020/12/27 10:33:57;;;;;;;19.20;11.93;;;;;;;;;;5071728;28;20374;-54
2020/12/27 10:36:23;;;;;;;23.10;12.85;;;;;;;;;;5071709;28;20031;-53
2020/12/27 10:38:49;;;;;;;25.40;16.38;;;;;;;;;;5071513;28;20430;-53
2020/12/27 10:41:16;;;;;;;32.47;17.40;;;;;;;;;;5073811;28;20036;-54
2020/12/27 10:43:49;;;;;;;21.70;12.85;;;;;;;;;;5075619;28;20029;-53
2020/12/27 10:46:15;;;;;;;25.58;14.55;;;;;;;;;;5075472;28;20110;-54
2020/12/27 10:48:41;;;;;;;28.92;17.45;;;;;;;;;;5075370;28;20380;-53
2020/12/27 10:51:07;;;;;;;22.83;13.90;;;;;;;;;;5074906;28;20495;-53
2020/12/27 10:53:34;;;;;;;21.85;12.75;;;;;;;;;;5068563;28;20546;-53
2020/12/27 10:56:00;;;;;;;22.73;13.23;;;;;;;;;;5073168;28;20062;-51
2020/12/27 10:58:26;;;;;;;22.50;13.30;;;;;;;;;;5083319;28;20048;-53
2020/12/27 11:00:52;;;;;;;21.83;14.02;;;;;;;;;;5074675;28;20021;-53
2020/12/27 11:03:18;;;;;;;24.75;14.75;;;;;;;;;;5075073;28;20020;-53
2020/12/27 11:05:44;;;;;;;25.05;14.68;;;;;;;;;;5062834;28;20045;-54
2020/12/27 11:08:10;;;;;;;22.70;13.43;;;;;;;;;;5073320;28;20021;-54
2020/12/27 11:10:36;;;;;;;20.08;12.30;;;;;;;;;;5075261;28;20125;-54
2020/12/27 11:13:02;;;;;;;25.33;15.45;;;;;;;;;;5075272;28;20047;-53
2020/12/27 11:15:32;;;;;;;23.52;14.45;;;;;;;;;;5075025;28;20070;-53
2020/12/27 11:18:00;;;;;;;19.13;11.10;;;;;;;;;;5074932;28;20021;-54
2020/12/27 11:20:26;;;;;;;17.10;10.70;;;;;;;;;;5074882;28;20025;-53
2020/12/27 11:22:52;;;;;;;17.20;10.45;;;;;;;;;;5075064;28;20112;-54
2020/12/27 11:25:18;;;;;;;17.15;10.50;;;;;;;;;;5074196;28;20110;-54
2020/12/27 11:27:44;;;;;;;56.72;31.60;;;;;;;;;;5075082;28;20089;-53
2020/12/27 11:30:10;;;;;;;21.17;13.10;;;;;;;;;;5074973;28;20021;-55
2020/12/27 11:32:36;;;;;;;16.77;9.85;;;;;;;;;;5074753;28;20029;-53
2020/12/27 11:35:02;;;;;;;16.00;9.93;;;;;;;;;;5074742;28;20074;-53
2020/12/27 11:37:28;;;;;;;15.10;9.88;;;;;;;;;;5074809;28;20472;-53
2020/12/27 11:39:54;;;;;;;18.27;11.10;;;;;;;;;;5074492;28;20027;-54
2020/12/27 11:42:25;;;;;;;13.80;8.88;;;;;;;;;;5073940;28;20033;-51
2020/12/27 11:44:51;;;;;;;16.10;10.27;;;;;;;;;;5074234;28;20040;-54
2020/12/27 11:47:17;;;;;;;17.02;10.15;;;;;;;;;;5070895;28;20108;-53
2020/12/27 11:49:43;;;;;;;17.25;10.77;;;;;;;;;;5059696;28;20100;-54
2020/12/27 11:52:09;;;;;;;20.45;12.80;;;;;;;;;;5074372;28;20056;-54
2020/12/27 11:54:35;;;;;;;18.30;10.95;;;;;;;;;;5059206;28;20237;-54
2020/12/27 11:57:01;;;;;;;19.02;11.93;;;;;;;;;;5064317;28;20056;-54
2020/12/27 11:59:27;;;;;;;28.58;15.95;;;;;;;;;;5067927;28;20426;-51
2020/12/27 12:01:53;;;;;;;27.38;17.35;;;;;;;;;;5073976;28;20524;-53
2020/12/27 12:04:19;;;;;;;22.13;13.80;;;;;;;;;;5070964;28;20033;-53
2020/12/27 12:06:45;;;;;;;21.10;12.35;;;;;;;;;;5063933;28;20416;-54
2020/12/27 12:09:12;;;;;;;26.98;16.15;;;;;;;;;;5057353;28;20024;-55
2020/12/27 12:11:39;;;;;;;18.75;11.43;;;;;;;;;;5055056;28;20025;-53
2020/12/27 12:14:05;;;;;;;24.63;15.65;;;;;;;;;;5055547;28;20021;-54
2020/12/27 12:16:31;;;;;;;16.63;10.35;;;;;;;;;;5054170;28;20021;-55
2020/12/27 12:18:58;;;;;;;20.17;12.18;;;;;;;;;;5053623;28;20025;-53
2020/12/27 12:21:25;;;;;;;23.60;14.07;;;;;;;;;;5056991;28;20025;-54
2020/12/27 12:23:51;;;;;;;21.40;12.65;;;;;;;;;;5055029;28;20064;-51
2020/12/27 12:26:20;;;;;;;23.02;13.73;;;;;;;;;;5056468;28;20404;-54
2020/12/27 12:28:46;;;;;;;19.52;12.57;;;;;;;;;;5061569;28;20025;-54
2020/12/27 12:31:15;;;;;;;27.50;14.93;;;;;;;;;;5058186;28;20116;-54
2020/12/27 12:33:42;;;;;;;18.13;10.63;;;;;;;;;;5072958;28;20434;-55
2020/12/27 12:36:12;;;;;;;24.88;15.52;;;;;;;;;;5064264;28;20029;-49
2020/12/27 12:38:38;;;;;;;25.63;15.55;;;;;;;;;;5055686;28;20029;-53
2020/12/27 12:41:04;;;;;;;24.45;15.45;;;;;;;;;;5063397;28;20078;-52
2020/12/27 12:43:31;;;;;;;28.08;16.85;;;;;;;;;;5066803;28;20100;-52
2020/12/27 12:46:00;;;;;;;22.77;13.88;;;;;;;;;;5057433;28;20032;-53
2020/12/27 12:48:26;;;;;;;24.73;16.20;;;;;;;;;;5061734;28;20032;-54
2020/12/27 12:50:52;;;;;;;23.80;15.77;;;;;;;;;;5060905;28;20432;-54
2020/12/27 12:53:18;;;;;;;23.85;14.43;;;;;;;;;;5072990;28;20376;-53
2020/12/27 12:55:44;;;;;;;15.75;10.68;;;;;;;;;;5062010;28;20111;-52
2020/12/27 12:58:10;;;;;;;18.17;11.18;;;;;;;;;;5073023;28;20025;-52
2020/12/27 13:00:36;;;;;;;19.42;12.82;;;;;;;;;;5063434;28;20032;-54
2020/12/27 13:03:02;;;;;;;21.10;11.65;;;;;;;;;;5069307;28;20043;-55
2020/12/27 13:05:28;;;;;;;23.77;13.98;;;;;;;;;;5066998;28;20066;-56
2020/12/27 13:07:54;;;;;;;19.33;11.18;;;;;;;;;;5067304;28;20056;-53
2020/12/27 13:10:20;;;;;;;21.02;12.63;;;;;;;;;;5063696;28;20046;-55
2020/12/27 13:12:46;;;;;;;17.05;9.82;;;;;;;;;;5072006;28;20016;-52
2020/12/27 13:15:12;;;;;;;19.58;11.82;;;;;;;;;;5065464;28;20029;-51
2020/12/27 13:17:39;;;;;;;13.57;9.10;;;;;;;;;;5061102;28;20595;-53
2020/12/27 13:20:05;;;;;;;15.15;9.77;;;;;;;;;;5060274;28;20032;-52
2020/12/27 13:22:31;;;;;;;18.42;11.75;;;;;;;;;;5066354;28;20028;-51
2020/12/27 13:24:57;;;;;;;19.52;12.30;;;;;;;;;;5060987;28;20048;-52
2020/12/27 13:27:23;;;;;;;22.25;14.15;;;;;;;;;;5072405;28;20039;-56
2020/12/27 13:29:49;;;;;;;20.02;12.15;;;;;;;;;;5067558;28;20025;-53
2020/12/27 13:32:15;;;;;;;23.63;15.35;;;;;;;;;;5065432;28;20036;-52
2020/12/27 13:34:41;;;;;;;21.83;13.02;;;;;;;;;;5072070;28;20028;-51
2020/12/27 13:37:07;;;;;;;17.65;11.27;;;;;;;;;;5071231;28;20025;-55
2020/12/27 13:39:33;;;;;;;22.85;14.73;;;;;;;;;;5059957;28;20099;-57
2020/12/27 13:41:59;;;;;;;21.85;13.45;;;;;;;;;;5071818;28;20013;-50
2020/12/27 13:44:25;;;;;;;19.67;11.50;;;;;;;;;;5071117;28;20032;-51
2020/12/27 13:46:51;;;;;;;25.33;14.40;;;;;;;;;;5052449;28;20021;-56
2020/12/27 13:49:17;;;;;;;28.92;14.55;;;;;;;;;;5052055;28;20477;-55
2020/12/27 13:51:45;;;;;;;20.85;13.00;;;;;;;;;;5054081;28;20084;-58
2020/12/27 13:54:11;;;;;;;20.38;12.45;;;;;;;;;;5067735;28;20021;-55
2020/12/27 13:56:37;;;;;;;20.35;12.98;;;;;;;;;;5064152;28;20029;-55
2020/12/27 13:59:03;;;;;;;18.65;13.23;;;;;;;;;;5057562;28;20036;-53
2020/12/27 14:01:29;;;;;;;16.02;9.77;;;;;;;;;;5073756;28;20035;-57
2020/12/27 14:03:55;;;;;;;17.77;11.73;;;;;;;;;;5071574;28;20495;-52
2020/12/27 14:06:28;;;;;;;21.08;14.25;;;;;;;;;;5071895;28;20039;-51
2020/12/27 14:08:57;;;;;;;27.27;14.65;;;;;;;;;;5068851;28;20476;-55
2020/12/27 14:11:24;;;;;;;18.10;12.13;;;;;;;;;;5084286;28;20484;-55
2020/12/27 14:13:50;;;;;;;15.82;10.25;;;;;;;;;;5070191;28;20017;-53
2020/12/27 14:16:17;;;;;;;24.65;16.60;;;;;;;;;;5073645;28;20032;-55